createdAt,value
2018-06-02T00:00:18.115Z,23.39
2018-06-02T00:00:50.918Z,23.40
2018-06-02T00:01:22.957Z,23.42
2018-06-02T00:01:54.969Z,23.45
2018-06-02T00:02:27.775Z,23.45
2018-06-02T00:02:59.791Z,23.45
2018-06-02T00:03:32.603Z,23.47
2018-06-02T00:04:04.615Z,23.47
2018-06-02T00:04:37.406Z,23.45
2018-06-02T00:05:09.438Z,23.45
2018-06-02T00:05:42.226Z,23.46
2018-06-02T00:06:14.251Z,23.47
2018-06-02T00:06:47.044Z,23.49
2018-06-02T00:07:19.090Z,23.49
2018-06-02T00:07:51.879Z,23.49
2018-06-02T00:08:23.910Z,23.49
2018-06-02T00:08:56.706Z,23.50
2018-06-02T00:09:28.741Z,23.48
2018-06-02T00:10:00.762Z,23.49
2018-06-02T00:10:33.575Z,23.49
2018-06-02T00:11:05.651Z,23.50
2018-06-02T00:11:37.639Z,23.49
2018-06-02T00:12:10.450Z,23.48
2018-06-02T00:12:42.480Z,23.49
2018-06-02T00:13:14.521Z,23.50
2018-06-02T00:13:47.314Z,23.50
2018-06-02T00:14:19.327Z,23.51
2018-06-02T00:14:52.128Z,23.55
2018-06-02T00:15:24.142Z,23.58
2018-06-02T00:15:56.940Z,23.61
2018-06-02T00:16:28.958Z,23.61
2018-06-02T00:17:01.747Z,23.62
2018-06-02T00:17:34.554Z,23.60
2018-06-02T00:18:06.575Z,23.61
2018-06-02T00:18:38.616Z,23.60
2018-06-02T00:19:11.395Z,23.60
2018-06-02T00:19:43.435Z,23.59
2018-06-02T00:20:16.240Z,23.59
2018-06-02T00:20:48.249Z,23.59
2018-06-02T00:21:21.057Z,23.58
2018-06-02T00:21:53.075Z,23.59
2018-06-02T00:22:25.872Z,23.59
2018-06-02T00:22:57.890Z,23.59
2018-06-02T00:23:30.678Z,23.61
2018-06-02T00:24:02.730Z,23.60
2018-06-02T00:24:35.511Z,23.58
2018-06-02T00:25:07.546Z,23.58
2018-06-02T00:25:39.595Z,23.59
2018-06-02T00:26:11.610Z,23.55
2018-06-02T00:26:43.650Z,23.55
2018-06-02T00:27:15.677Z,23.51
2018-06-02T00:27:47.710Z,23.48
2018-06-02T00:28:19.735Z,23.45
2018-06-02T00:28:52.546Z,23.34
2018-06-02T00:29:24.560Z,23.29
2018-06-02T00:29:57.339Z,23.27
2018-06-02T00:30:30.160Z,23.24
2018-06-02T00:31:02.161Z,23.19
2018-06-02T00:31:34.181Z,23.12
2018-06-02T00:32:06.214Z,23.09
2018-06-02T00:32:38.259Z,23.07
2018-06-02T00:33:10.280Z,23.01
2018-06-02T00:33:42.305Z,23.02
2018-06-02T00:34:15.152Z,23.01
2018-06-02T00:34:47.138Z,22.99
2018-06-02T00:35:19.218Z,23.00
2018-06-02T00:35:51.247Z,23.00
2018-06-02T00:36:23.265Z,23.01
2018-06-02T00:36:55.294Z,23.02
2018-06-02T00:37:27.325Z,23.02
2018-06-02T00:37:59.357Z,23.02
2018-06-02T00:38:31.380Z,23.03
2018-06-02T00:39:04.236Z,23.05
2018-06-02T00:39:36.236Z,23.01
2018-06-02T00:40:08.252Z,22.99
2018-06-02T00:40:41.088Z,23.00
2018-06-02T00:41:13.110Z,22.99
2018-06-02T00:41:45.173Z,23.04
2018-06-02T00:42:17.190Z,23.04
2018-06-02T00:42:49.206Z,23.05
2018-06-02T00:43:21.241Z,23.07
2018-06-02T00:43:53.271Z,23.09
2018-06-02T00:44:25.295Z,23.10
2018-06-02T00:44:57.310Z,23.11
2018-06-02T00:45:29.334Z,23.09
2018-06-02T00:46:01.389Z,23.06
2018-06-02T00:46:33.419Z,23.08
2018-06-02T00:47:05.427Z,23.10
2018-06-02T00:47:37.472Z,23.13
2018-06-02T00:48:09.491Z,23.13
2018-06-02T00:48:41.535Z,23.10
2018-06-02T00:49:13.562Z,23.08
2018-06-02T00:49:45.599Z,23.05
2018-06-02T00:50:18.408Z,23.03
2018-06-02T00:50:50.427Z,23.02
2018-06-02T00:51:22.447Z,23.01
2018-06-02T00:51:54.490Z,23.01
2018-06-02T00:52:26.517Z,22.99
2018-06-02T00:52:58.534Z,22.95
2018-06-02T00:53:30.557Z,22.94
2018-06-02T00:54:02.591Z,22.92
2018-06-02T00:54:34.606Z,22.90
2018-06-02T00:55:06.648Z,22.89
2018-06-02T00:55:38.724Z,22.89
2018-06-02T00:56:10.735Z,22.92
2018-06-02T00:56:42.803Z,22.93
2018-06-02T00:57:14.825Z,22.93
2018-06-02T00:57:47.631Z,22.95
2018-06-02T00:58:19.630Z,22.95
2018-06-02T00:58:51.658Z,22.95
2018-06-02T00:59:23.690Z,22.93
2018-06-02T00:59:55.702Z,22.91
2018-06-02T01:00:28.522Z,22.88
2018-06-02T01:01:00.549Z,22.89
2018-06-02T01:01:32.563Z,22.91
2018-06-02T01:02:05.390Z,22.91
2018-06-02T01:02:37.440Z,22.88
2018-06-02T01:03:09.433Z,22.87
2018-06-02T01:03:42.252Z,22.87
2018-06-02T01:04:14.281Z,22.89
2018-06-02T01:04:47.063Z,22.90
2018-06-02T01:05:19.098Z,22.89
2018-06-02T01:05:51.112Z,22.87
2018-06-02T01:06:23.162Z,22.85
2018-06-02T01:06:55.191Z,22.82
2018-06-02T01:07:27.231Z,22.81
2018-06-02T01:07:59.256Z,22.81
2018-06-02T01:08:31.278Z,22.81
2018-06-02T01:09:03.308Z,22.79
2018-06-02T01:09:35.331Z,22.82
2018-06-02T01:10:07.360Z,22.82
2018-06-02T01:10:39.375Z,22.81
2018-06-02T01:11:11.423Z,22.77
2018-06-02T01:11:43.472Z,22.79
2018-06-02T01:12:15.519Z,22.82
2018-06-02T01:12:47.564Z,22.82
2018-06-02T01:13:19.591Z,22.82
2018-06-02T01:13:51.607Z,22.81
2018-06-02T01:14:24.414Z,22.82
2018-06-02T01:14:56.433Z,22.84
2018-06-02T01:15:28.476Z,22.85
2018-06-02T01:16:01.268Z,22.87
2018-06-02T01:16:33.309Z,22.87
2018-06-02T01:17:05.352Z,22.88
2018-06-02T01:17:38.135Z,22.86
2018-06-02T01:18:10.183Z,22.86
2018-06-02T01:18:42.211Z,22.82
2018-06-02T01:19:15.002Z,22.79
2018-06-02T01:19:47.062Z,22.78
2018-06-02T01:20:19.065Z,22.75
2018-06-02T01:20:51.138Z,22.76
2018-06-02T01:21:23.114Z,22.79
2018-06-02T01:21:55.167Z,22.82
2018-06-02T01:22:27.186Z,22.85
2018-06-02T01:22:59.213Z,22.89
2018-06-02T01:23:31.243Z,22.90
2018-06-02T01:24:03.307Z,22.90
2018-06-02T01:24:35.335Z,22.91
2018-06-02T01:25:07.398Z,22.92
2018-06-02T01:25:39.425Z,22.92
2018-06-02T01:26:11.534Z,22.93
2018-06-02T01:26:43.583Z,22.97
2018-06-02T01:27:15.621Z,22.98
2018-06-02T01:27:47.658Z,23.00
2018-06-02T01:28:19.691Z,23.00
2018-06-02T01:28:51.730Z,23.01
2018-06-02T01:29:23.752Z,23.02
2018-06-02T01:29:56.566Z,23.04
2018-06-02T01:30:28.632Z,23.05
2018-06-02T01:31:00.639Z,23.03
2018-06-02T01:31:32.702Z,23.03
2018-06-02T01:32:04.736Z,23.00
2018-06-02T01:32:37.525Z,23.00
2018-06-02T01:33:09.547Z,22.98
2018-06-02T01:33:42.351Z,22.98
2018-06-02T01:34:14.386Z,22.96
2018-06-02T01:34:47.170Z,22.96
2018-06-02T01:35:19.221Z,22.96
2018-06-02T01:35:51.226Z,22.95
2018-06-02T01:36:23.251Z,22.95
2018-06-02T01:36:55.276Z,22.96
2018-06-02T01:37:27.310Z,22.96
2018-06-02T01:37:59.343Z,22.92
2018-06-02T01:38:31.365Z,22.86
2018-06-02T01:39:03.395Z,22.84
2018-06-02T01:39:35.430Z,22.81
2018-06-02T01:40:07.473Z,22.81
2018-06-02T01:40:39.493Z,22.81
2018-06-02T01:41:11.510Z,22.81
2018-06-02T01:41:43.575Z,22.82
2018-06-02T01:42:15.635Z,22.84
2018-06-02T01:42:47.655Z,22.85
2018-06-02T01:43:19.713Z,22.84
2018-06-02T01:43:51.720Z,22.84
2018-06-02T01:44:23.743Z,22.83
2018-06-02T01:44:55.789Z,22.84
2018-06-02T01:45:27.810Z,22.85
2018-06-02T01:45:59.963Z,22.85
2018-06-02T01:46:31.995Z,22.86
2018-06-02T01:47:04.012Z,22.85
2018-06-02T01:47:36.806Z,22.87
2018-06-02T01:48:08.833Z,22.89
2018-06-02T01:48:41.628Z,22.90
2018-06-02T01:49:13.643Z,22.88
2018-06-02T01:49:45.674Z,22.88
2018-06-02T01:50:17.691Z,22.87
2018-06-02T01:50:49.717Z,22.83
2018-06-02T01:51:22.521Z,22.84
2018-06-02T01:51:54.544Z,22.84
2018-06-02T01:52:26.579Z,22.85
2018-06-02T01:52:59.377Z,22.87
2018-06-02T01:53:31.399Z,22.87
2018-06-02T01:54:04.202Z,22.88
2018-06-02T01:54:36.218Z,22.88
2018-06-02T01:55:09.003Z,22.88
2018-06-02T01:55:41.058Z,22.89
2018-06-02T01:56:13.079Z,22.90
2018-06-02T01:56:45.114Z,22.89
2018-06-02T01:57:17.136Z,22.91
2018-06-02T01:57:49.187Z,22.90
2018-06-02T01:58:21.216Z,22.89
2018-06-02T01:58:53.287Z,22.91
2018-06-02T01:59:25.307Z,22.92
2018-06-02T01:59:58.103Z,22.93
2018-06-02T02:00:30.151Z,22.95
2018-06-02T02:01:02.157Z,22.95
2018-06-02T02:01:34.178Z,22.97
2018-06-02T02:02:06.226Z,22.98
2018-06-02T02:02:38.281Z,22.99
2018-06-02T02:03:10.306Z,23.00
2018-06-02T02:03:42.356Z,23.02
2018-06-02T02:04:14.390Z,23.02
2018-06-02T02:04:47.169Z,23.02
2018-06-02T02:05:19.208Z,23.02
2018-06-02T02:05:51.253Z,23.02
2018-06-02T02:06:24.062Z,23.01
2018-06-02T02:06:56.090Z,23.00
2018-06-02T02:07:28.116Z,23.00
2018-06-02T02:08:00.911Z,23.01
2018-06-02T02:08:32.936Z,23.00
2018-06-02T02:09:05.782Z,23.01
2018-06-02T02:09:37.776Z,23.00
2018-06-02T02:10:09.805Z,23.01
2018-06-02T02:10:41.815Z,23.01
2018-06-02T02:11:13.852Z,23.02
2018-06-02T02:11:45.875Z,23.03
2018-06-02T02:12:17.909Z,23.05
2018-06-02T02:12:49.943Z,23.05
2018-06-02T02:13:21.991Z,23.06
2018-06-02T02:13:54.009Z,23.08
2018-06-02T02:14:26.059Z,23.09
2018-06-02T02:14:58.065Z,23.10
2018-06-02T02:15:30.093Z,23.09
2018-06-02T02:16:02.127Z,23.09
2018-06-02T02:16:34.153Z,23.11
2018-06-02T02:17:06.177Z,23.09
2018-06-02T02:17:38.979Z,23.08
2018-06-02T02:18:11.012Z,23.08
2018-06-02T02:18:43.039Z,23.08
2018-06-02T02:19:15.067Z,23.08
2018-06-02T02:19:47.093Z,23.08
2018-06-02T02:20:19.114Z,23.07
2018-06-02T02:20:51.898Z,23.05
2018-06-02T02:21:23.907Z,23.06
2018-06-02T02:21:55.944Z,23.03
2018-06-02T02:22:28.007Z,23.03
2018-06-02T02:23:00.024Z,23.02
2018-06-02T02:23:32.086Z,23.01
2018-06-02T02:24:04.114Z,23.00
2018-06-02T02:24:36.144Z,22.99
2018-06-02T02:25:08.164Z,22.98
2018-06-02T02:25:40.190Z,22.98
2018-06-02T02:26:12.218Z,22.96
2018-06-02T02:26:44.238Z,22.96
2018-06-02T02:27:17.042Z,22.96
2018-06-02T02:27:49.108Z,22.96
2018-06-02T02:28:21.123Z,22.93
2018-06-02T02:28:53.156Z,22.93
2018-06-02T02:29:25.945Z,22.94
2018-06-02T02:29:57.962Z,22.95
2018-06-02T02:30:29.972Z,22.96
2018-06-02T02:31:02.006Z,22.97
2018-06-02T02:31:34.063Z,22.99
2018-06-02T02:32:06.081Z,23.00
2018-06-02T02:32:38.880Z,23.02
2018-06-02T02:33:10.928Z,23.03
2018-06-02T02:33:42.956Z,23.04
2018-06-02T02:34:15.752Z,23.03
2018-06-02T02:34:47.763Z,23.05
2018-06-02T02:35:19.786Z,23.06
2018-06-02T02:35:51.811Z,23.07
2018-06-02T02:36:23.840Z,23.06
2018-06-02T02:36:55.887Z,23.05
2018-06-02T02:37:28.663Z,23.06
2018-06-02T02:38:00.738Z,23.06
2018-06-02T02:38:32.772Z,23.06
2018-06-02T02:39:04.815Z,23.04
2018-06-02T02:39:36.850Z,23.04
2018-06-02T02:40:09.663Z,23.05
2018-06-02T02:40:41.724Z,23.06
2018-06-02T02:41:13.755Z,23.07
2018-06-02T02:41:45.819Z,23.06
2018-06-02T02:42:17.854Z,23.05
2018-06-02T02:42:49.882Z,23.04
2018-06-02T02:43:22.686Z,23.04
2018-06-02T02:43:54.718Z,23.02
2018-06-02T02:44:26.763Z,23.01
2018-06-02T02:44:58.815Z,23.00
2018-06-02T02:45:31.628Z,22.99
2018-06-02T02:46:03.660Z,23.00
2018-06-02T02:46:35.681Z,23.00
2018-06-02T02:47:08.481Z,22.97
2018-06-02T02:47:40.514Z,22.97
2018-06-02T02:48:12.575Z,22.96
2018-06-02T02:48:44.597Z,22.98
2018-06-02T02:49:17.393Z,22.98
2018-06-02T02:49:49.419Z,22.98
2018-06-02T02:50:22.216Z,22.98
2018-06-02T02:50:54.256Z,22.98
2018-06-02T02:51:26.299Z,22.98
2018-06-02T02:51:58.363Z,22.98
2018-06-02T02:52:30.394Z,22.97
2018-06-02T02:53:03.211Z,22.96
2018-06-02T02:53:35.236Z,22.96
2018-06-02T02:54:07.268Z,22.97
2018-06-02T02:54:40.062Z,22.98
2018-06-02T02:55:12.091Z,22.97
2018-06-02T02:55:44.873Z,22.96
2018-06-02T02:56:16.912Z,22.96
2018-06-02T02:56:49.700Z,22.96
2018-06-02T02:57:21.726Z,22.96
2018-06-02T02:57:54.512Z,22.95
2018-06-02T02:58:26.534Z,22.95
2018-06-02T02:58:58.561Z,22.96
2018-06-02T02:59:30.593Z,22.95
2018-06-02T03:00:02.612Z,22.95
2018-06-02T03:00:34.646Z,22.96
2018-06-02T03:01:07.451Z,22.96
2018-06-02T03:01:39.484Z,22.96
2018-06-02T03:02:11.515Z,22.97
2018-06-02T03:02:43.527Z,22.96
2018-06-02T03:03:15.583Z,22.96
2018-06-02T03:03:47.588Z,22.96
2018-06-02T03:04:19.626Z,22.96
2018-06-02T03:04:52.413Z,22.96
2018-06-02T03:05:24.453Z,22.94
2018-06-02T03:05:57.247Z,22.94
2018-06-02T03:06:29.267Z,22.94
2018-06-02T03:07:02.092Z,22.93
2018-06-02T03:07:34.114Z,22.92
2018-06-02T03:08:06.149Z,22.92
2018-06-02T03:08:38.162Z,22.95
2018-06-02T03:09:10.218Z,22.94
2018-06-02T03:09:42.222Z,22.93
2018-06-02T03:10:14.259Z,22.94
2018-06-02T03:10:46.288Z,22.93
2018-06-02T03:11:19.075Z,22.94
2018-06-02T03:11:51.111Z,22.95
2018-06-02T03:12:23.912Z,22.94
2018-06-02T03:12:55.929Z,22.92
2018-06-02T03:13:28.719Z,22.92
2018-06-02T03:14:00.744Z,22.94
2018-06-02T03:14:34.558Z,22.96
2018-06-02T03:15:07.351Z,22.95
2018-06-02T03:15:39.412Z,22.95
2018-06-02T03:16:11.474Z,22.93
2018-06-02T03:16:43.506Z,22.92
2018-06-02T03:17:15.562Z,22.91
2018-06-02T03:17:47.587Z,22.91
2018-06-02T03:18:19.647Z,22.89
2018-06-02T03:18:51.710Z,22.90
2018-06-02T03:19:23.753Z,22.89
2018-06-02T03:19:55.791Z,22.90
2018-06-02T03:20:28.559Z,22.89
2018-06-02T03:21:00.588Z,22.90
2018-06-02T03:21:33.397Z,22.88
2018-06-02T03:22:05.443Z,22.85
2018-06-02T03:22:37.512Z,22.86
2018-06-02T03:23:09.547Z,22.85
2018-06-02T03:23:41.572Z,22.82
2018-06-02T03:24:14.353Z,22.78
2018-06-02T03:24:46.449Z,22.80
2018-06-02T03:25:18.455Z,22.79
2018-06-02T03:25:50.487Z,22.76
2018-06-02T03:26:22.502Z,22.75
2018-06-02T03:26:54.535Z,22.73
2018-06-02T03:27:26.587Z,22.70
2018-06-02T03:27:58.631Z,22.70
2018-06-02T03:28:30.670Z,22.70
2018-06-02T03:29:02.708Z,22.71
2018-06-02T03:29:35.498Z,22.72
2018-06-02T03:30:07.515Z,22.70
2018-06-02T03:30:40.322Z,22.70
2018-06-02T03:31:12.352Z,22.70
2018-06-02T03:31:44.384Z,22.69
2018-06-02T03:32:17.193Z,22.71
2018-06-02T03:32:49.215Z,22.72
2018-06-02T03:33:22.048Z,22.71
2018-06-02T03:33:54.063Z,22.74
2018-06-02T03:34:26.111Z,22.75
2018-06-02T03:34:58.200Z,22.75
2018-06-02T03:35:30.224Z,22.73
2018-06-02T03:36:02.257Z,22.74
2018-06-02T03:36:34.279Z,22.73
2018-06-02T03:37:07.084Z,22.73
2018-06-02T03:37:39.102Z,22.72
2018-06-02T03:38:11.893Z,22.73
2018-06-02T03:38:43.920Z,22.74
2018-06-02T03:39:16.755Z,22.75
2018-06-02T03:39:48.802Z,22.76
2018-06-02T03:40:20.827Z,22.76
2018-06-02T03:40:52.863Z,22.77
2018-06-02T03:41:24.892Z,22.77
2018-06-02T03:41:56.921Z,22.76
2018-06-02T03:42:28.937Z,22.75
2018-06-02T03:43:00.986Z,22.76
2018-06-02T03:43:33.029Z,22.76
2018-06-02T03:44:05.063Z,22.75
2018-06-02T03:44:37.873Z,22.73
2018-06-02T03:45:09.890Z,22.72
2018-06-02T03:45:41.919Z,22.70
2018-06-02T03:46:14.721Z,22.70
2018-06-02T03:46:46.748Z,22.69
2018-06-02T03:47:19.551Z,22.69
2018-06-02T03:47:51.588Z,22.68
2018-06-02T03:48:23.603Z,22.69
2018-06-02T03:48:55.666Z,22.69
2018-06-02T03:49:27.704Z,22.69
2018-06-02T03:49:59.725Z,22.68
2018-06-02T03:50:31.772Z,22.69
2018-06-02T03:51:03.803Z,22.69
2018-06-02T03:51:35.844Z,22.69
2018-06-02T03:52:07.961Z,22.69
2018-06-02T03:52:39.959Z,22.68
2018-06-02T03:53:11.984Z,22.69
2018-06-02T03:53:44.779Z,22.69
2018-06-02T03:54:16.815Z,22.69
2018-06-02T03:54:48.842Z,22.69
2018-06-02T03:55:20.881Z,22.70
2018-06-02T03:55:52.891Z,22.70
2018-06-02T03:56:24.922Z,22.71
2018-06-02T03:56:56.960Z,22.70
2018-06-02T03:57:29.778Z,22.70
2018-06-02T03:58:01.825Z,22.69
2018-06-02T03:58:33.840Z,22.69
2018-06-02T03:59:05.888Z,22.70
2018-06-02T03:59:38.665Z,22.71
2018-06-02T04:00:10.720Z,22.71
2018-06-02T04:00:42.747Z,22.70
2018-06-02T04:01:15.542Z,22.68
2018-06-02T04:01:47.559Z,22.68
2018-06-02T04:02:19.590Z,22.66
2018-06-02T04:02:51.618Z,22.66
2018-06-02T04:03:23.643Z,22.67
2018-06-02T04:03:55.720Z,22.66
2018-06-02T04:04:27.775Z,22.67
2018-06-02T04:04:59.795Z,22.68
2018-06-02T04:05:31.811Z,22.68
2018-06-02T04:06:03.841Z,22.67
2018-06-02T04:06:35.857Z,22.68
2018-06-02T04:07:07.895Z,22.69
2018-06-02T04:07:39.934Z,22.67
2018-06-02T04:08:12.719Z,22.66
2018-06-02T04:08:44.843Z,22.67
2018-06-02T04:09:16.850Z,22.67
2018-06-02T04:09:48.875Z,22.67
2018-06-02T04:10:21.662Z,22.65
2018-06-02T04:10:53.683Z,22.65
2018-06-02T04:11:26.500Z,22.64
2018-06-02T04:11:59.234Z,22.64
2018-06-02T04:12:32.010Z,22.65
2018-06-02T04:13:04.030Z,22.65
2018-06-02T04:13:36.065Z,22.64
2018-06-02T04:14:08.094Z,22.65
2018-06-02T04:14:40.119Z,22.65
2018-06-02T04:15:12.146Z,22.66
2018-06-02T04:15:44.972Z,22.65
2018-06-02T04:16:16.955Z,22.64
2018-06-02T04:16:49.743Z,22.63
2018-06-02T04:17:21.778Z,22.61
2018-06-02T04:17:54.568Z,22.63
2018-06-02T04:18:26.619Z,22.64
2018-06-02T04:18:58.652Z,22.66
2018-06-02T04:19:31.442Z,22.67
2018-06-02T04:20:03.483Z,22.68
2018-06-02T04:20:36.260Z,22.68
2018-06-02T04:21:08.271Z,22.70
2018-06-02T04:21:40.307Z,22.68
2018-06-02T04:22:12.326Z,22.67
2018-06-02T04:22:44.359Z,22.65
2018-06-02T04:23:16.392Z,22.63
2018-06-02T04:23:49.211Z,22.63
2018-06-02T04:24:21.227Z,22.62
2018-06-02T04:24:53.262Z,22.59
2018-06-02T04:25:26.063Z,22.57
2018-06-02T04:25:58.086Z,22.54
2018-06-02T04:26:30.857Z,22.55
2018-06-02T04:27:03.655Z,22.50
2018-06-02T04:27:35.667Z,22.50
2018-06-02T04:28:08.464Z,22.50
2018-06-02T04:28:40.497Z,22.50
2018-06-02T04:29:13.311Z,22.49
2018-06-02T04:29:45.366Z,22.48
2018-06-02T04:30:17.369Z,22.48
2018-06-02T04:30:50.169Z,22.48
2018-06-02T04:31:22.202Z,22.50
2018-06-02T04:31:54.231Z,22.50
2018-06-02T04:32:27.026Z,22.48
2018-06-02T04:32:59.043Z,22.47
2018-06-02T04:33:31.089Z,22.46
2018-06-02T04:34:03.123Z,22.45
2018-06-02T04:34:35.153Z,22.44
2018-06-02T04:35:07.190Z,22.42
2018-06-02T04:35:39.211Z,22.42
2018-06-02T04:36:12.010Z,22.42
2018-06-02T04:36:44.027Z,22.42
2018-06-02T04:37:16.826Z,22.42
2018-06-02T04:37:48.877Z,22.41
2018-06-02T04:38:20.906Z,22.40
2018-06-02T04:38:53.729Z,22.38
2018-06-02T04:39:25.766Z,22.38
2018-06-02T04:39:57.807Z,22.39
2018-06-02T04:40:29.830Z,22.40
2018-06-02T04:41:02.616Z,22.40
2018-06-02T04:41:34.672Z,22.41
2018-06-02T04:42:07.442Z,22.42
2018-06-02T04:42:39.481Z,22.42
2018-06-02T04:43:12.252Z,22.43
2018-06-02T04:43:44.288Z,22.45
2018-06-02T04:44:17.112Z,22.48
2018-06-02T04:44:49.129Z,22.51
2018-06-02T04:45:21.182Z,22.51
2018-06-02T04:45:53.218Z,22.53
2018-06-02T04:46:26.002Z,22.55
2018-06-02T04:46:58.020Z,22.53
2018-06-02T04:47:30.043Z,22.54
2018-06-02T04:48:02.072Z,22.53
2018-06-02T04:48:34.110Z,22.53
2018-06-02T04:49:06.159Z,22.52
2018-06-02T04:49:38.972Z,22.53
2018-06-02T04:50:11.063Z,22.53
2018-06-02T04:50:43.052Z,22.52
2018-06-02T04:51:15.071Z,22.52
2018-06-02T04:51:47.108Z,22.54
2018-06-02T04:52:19.894Z,22.55
2018-06-02T04:52:51.944Z,22.56
2018-06-02T04:53:23.972Z,22.57
2018-06-02T04:53:56.002Z,22.57
2018-06-02T04:54:28.026Z,22.60
2018-06-02T04:55:00.065Z,22.59
2018-06-02T04:55:32.083Z,22.62
2018-06-02T04:56:04.866Z,22.62
2018-06-02T04:56:36.899Z,22.59
2018-06-02T04:57:09.701Z,22.58
2018-06-02T04:57:41.737Z,22.58
2018-06-02T04:58:14.522Z,22.62
2018-06-02T04:58:46.554Z,22.67
2018-06-02T04:59:19.344Z,22.68
2018-06-02T04:59:51.358Z,22.67
2018-06-02T05:00:24.150Z,22.65
2018-06-02T05:00:56.189Z,22.65
2018-06-02T05:01:28.963Z,22.64
2018-06-02T05:02:01.008Z,22.66
2018-06-02T05:02:33.790Z,22.65
2018-06-02T05:03:05.825Z,22.65
2018-06-02T05:03:38.610Z,22.64
2018-06-02T05:04:10.685Z,22.63
2018-06-02T05:04:42.706Z,22.63
2018-06-02T05:05:15.517Z,22.64
2018-06-02T05:05:47.540Z,22.63
2018-06-02T05:06:19.562Z,22.66
2018-06-02T05:06:52.383Z,22.66
2018-06-02T05:07:24.409Z,22.67
2018-06-02T05:07:56.451Z,22.66
2018-06-02T05:08:29.253Z,22.68
2018-06-02T05:09:01.282Z,22.69
2018-06-02T05:09:34.085Z,22.69
2018-06-02T05:10:06.110Z,22.69
2018-06-02T05:10:38.143Z,22.70
2018-06-02T05:11:10.183Z,22.69
2018-06-02T05:11:42.963Z,22.70
2018-06-02T05:12:15.008Z,22.69
2018-06-02T05:12:47.109Z,22.69
2018-06-02T05:13:19.155Z,22.69
2018-06-02T05:13:51.180Z,22.69
2018-06-02T05:14:23.241Z,22.71
2018-06-02T05:14:55.245Z,22.71
2018-06-02T05:15:27.279Z,22.70
2018-06-02T05:15:59.319Z,22.72
2018-06-02T05:16:31.374Z,22.72
2018-06-02T05:17:03.347Z,22.69
2018-06-02T05:17:35.383Z,22.67
2018-06-02T05:18:07.405Z,22.68
2018-06-02T05:18:39.433Z,22.68
2018-06-02T05:19:11.477Z,22.67
2018-06-02T05:19:44.259Z,22.66
2018-06-02T05:20:16.287Z,22.66
2018-06-02T05:20:49.083Z,22.63
2018-06-02T05:21:21.100Z,22.64
2018-06-02T05:21:53.893Z,22.65
2018-06-02T05:22:25.929Z,22.64
2018-06-02T05:22:58.718Z,22.64
2018-06-02T05:23:30.787Z,22.63
2018-06-02T05:24:02.822Z,22.61
2018-06-02T05:24:34.875Z,22.63
2018-06-02T05:25:06.895Z,22.62
2018-06-02T05:25:39.696Z,22.62
2018-06-02T05:26:11.713Z,22.61
2018-06-02T05:26:43.757Z,22.60
2018-06-02T05:27:15.774Z,22.60
2018-06-02T05:27:47.799Z,22.59
2018-06-02T05:28:19.824Z,22.57
2018-06-02T05:28:52.611Z,22.57
2018-06-02T05:29:24.643Z,22.56
2018-06-02T05:29:57.426Z,22.54
2018-06-02T05:30:29.464Z,22.55
2018-06-02T05:31:01.484Z,22.54
2018-06-02T05:31:33.499Z,22.53
2018-06-02T05:32:05.518Z,22.53
2018-06-02T05:32:38.323Z,22.51
2018-06-02T05:33:10.341Z,22.49
2018-06-02T05:33:43.132Z,22.47
2018-06-02T05:34:15.259Z,22.45
2018-06-02T05:34:47.279Z,22.45
2018-06-02T05:35:19.320Z,22.44
2018-06-02T05:35:51.332Z,22.43
2018-06-02T05:36:24.131Z,22.42
2018-06-02T05:36:56.203Z,22.41
2018-06-02T05:37:28.228Z,22.40
2018-06-02T05:38:00.251Z,22.36
2018-06-02T05:38:32.289Z,22.36
2018-06-02T05:39:05.087Z,22.36
2018-06-02T05:39:37.159Z,22.38
2018-06-02T05:40:09.194Z,22.40
2018-06-02T05:40:41.296Z,22.41
2018-06-02T05:41:13.280Z,22.40
2018-06-02T05:41:45.312Z,22.41
2018-06-02T05:42:18.108Z,22.42
2018-06-02T05:42:50.134Z,22.43
2018-06-02T05:43:22.919Z,22.43
2018-06-02T05:43:54.944Z,22.44
2018-06-02T05:44:26.963Z,22.43
2018-06-02T05:44:59.016Z,22.44
2018-06-02T05:45:31.037Z,22.41
2018-06-02T05:46:03.072Z,22.40
2018-06-02T05:46:35.846Z,22.41
2018-06-02T05:47:07.869Z,22.42
2018-06-02T05:47:40.657Z,22.45
2018-06-02T05:48:12.696Z,22.46
2018-06-02T05:48:45.483Z,22.48
2018-06-02T05:49:17.602Z,22.49
2018-06-02T05:49:49.605Z,22.44
2018-06-02T05:50:21.622Z,22.46
2018-06-02T05:50:53.654Z,22.48
2018-06-02T05:51:25.686Z,22.47
2018-06-02T05:51:57.706Z,22.46
2018-06-02T05:52:29.745Z,22.46
2018-06-02T05:53:01.814Z,22.48
2018-06-02T05:53:33.844Z,22.48
2018-06-02T05:54:05.876Z,22.48
2018-06-02T05:54:38.670Z,22.48
2018-06-02T05:55:10.686Z,22.51
2018-06-02T05:55:42.717Z,22.54
2018-06-02T05:56:14.750Z,22.58
2018-06-02T05:56:46.783Z,22.62
2018-06-02T05:57:18.825Z,22.63
2018-06-02T05:57:50.857Z,22.64
2018-06-02T05:58:23.667Z,22.65
2018-06-02T05:58:55.711Z,22.66
2018-06-02T05:59:27.749Z,22.64
2018-06-02T05:59:59.897Z,22.66
2018-06-02T06:00:32.566Z,22.66
2018-06-02T06:01:04.610Z,22.68
2018-06-02T06:01:37.386Z,22.70
2018-06-02T06:02:09.439Z,22.70
2018-06-02T06:02:41.491Z,22.73
2018-06-02T06:03:14.264Z,22.75
2018-06-02T06:03:47.094Z,22.77
2018-06-02T06:04:19.106Z,22.75
2018-06-02T06:04:51.169Z,22.73
2018-06-02T06:05:23.195Z,22.70
2018-06-02T06:05:55.221Z,22.71
2018-06-02T06:06:28.028Z,22.70
2018-06-02T06:07:00.045Z,22.69
2018-06-02T06:07:32.096Z,22.69
2018-06-02T06:08:04.888Z,22.68
2018-06-02T06:08:36.920Z,22.69
2018-06-02T06:09:09.725Z,22.69
2018-06-02T06:09:41.749Z,22.70
2018-06-02T06:10:13.801Z,22.69
2018-06-02T06:10:45.818Z,22.71
2018-06-02T06:11:17.845Z,22.70
2018-06-02T06:11:49.874Z,22.67
2018-06-02T06:12:21.910Z,22.67
2018-06-02T06:12:53.979Z,22.63
2018-06-02T06:13:26.008Z,22.64
2018-06-02T06:13:58.051Z,22.65
2018-06-02T06:14:30.089Z,22.66
2018-06-02T06:15:02.894Z,22.68
2018-06-02T06:15:34.909Z,22.71
2018-06-02T06:16:07.729Z,22.71
2018-06-02T06:16:39.756Z,22.71
2018-06-02T06:17:11.794Z,22.68
2018-06-02T06:17:43.828Z,22.68
2018-06-02T06:18:16.622Z,22.69
2018-06-02T06:18:48.649Z,22.70
2018-06-02T06:19:20.671Z,22.69
2018-06-02T06:19:52.728Z,22.67
2018-06-02T06:20:24.753Z,22.64
2018-06-02T06:20:56.822Z,22.63
2018-06-02T06:21:28.823Z,22.66
2018-06-02T06:22:00.885Z,22.69
2018-06-02T06:22:32.914Z,22.69
2018-06-02T06:23:05.697Z,22.71
2018-06-02T06:23:37.812Z,22.72
2018-06-02T06:24:09.823Z,22.73
2018-06-02T06:24:41.851Z,22.74
2018-06-02T06:25:14.654Z,22.75
2018-06-02T06:25:46.703Z,22.79
2018-06-02T06:26:18.728Z,22.79
2018-06-02T06:26:50.793Z,22.79
2018-06-02T06:27:22.821Z,22.79
2018-06-02T06:27:55.614Z,22.77
2018-06-02T06:28:27.641Z,22.74
2018-06-02T06:28:59.698Z,22.71
2018-06-02T06:29:31.741Z,22.69
2018-06-02T06:30:04.693Z,22.67
2018-06-02T06:30:36.752Z,22.66
2018-06-02T06:31:09.554Z,22.65
2018-06-02T06:31:41.574Z,22.64
2018-06-02T06:32:14.380Z,22.64
2018-06-02T06:32:46.408Z,22.64
2018-06-02T06:33:18.439Z,22.61
2018-06-02T06:33:50.456Z,22.60
2018-06-02T06:34:22.478Z,22.62
2018-06-02T06:34:54.510Z,22.61
2018-06-02T06:35:27.348Z,22.60
2018-06-02T06:35:59.395Z,22.58
2018-06-02T06:36:31.405Z,22.59
2018-06-02T06:37:03.437Z,22.58
2018-06-02T06:37:36.225Z,22.60
2018-06-02T06:38:08.253Z,22.63
2018-06-02T06:38:41.039Z,22.65
2018-06-02T06:39:13.062Z,22.65
2018-06-02T06:39:45.851Z,22.65
2018-06-02T06:40:17.880Z,22.66
2018-06-02T06:40:49.908Z,22.67
2018-06-02T06:41:21.935Z,22.67
2018-06-02T06:41:53.962Z,22.67
2018-06-02T06:42:25.989Z,22.67
2018-06-02T06:42:58.798Z,22.65
2018-06-02T06:43:30.803Z,22.65
2018-06-02T06:44:03.603Z,22.66
2018-06-02T06:44:35.703Z,22.67
2018-06-02T06:45:08.447Z,22.67
2018-06-02T06:45:40.485Z,22.66
2018-06-02T06:46:12.506Z,22.70
2018-06-02T06:46:45.310Z,22.71
2018-06-02T06:47:17.343Z,22.74
2018-06-02T06:47:49.373Z,22.78
2018-06-02T06:48:22.178Z,22.83
2018-06-02T06:48:54.208Z,22.86
2018-06-02T06:49:26.256Z,22.88
2018-06-02T06:49:58.298Z,22.90
2018-06-02T06:50:31.144Z,22.93
2018-06-02T06:51:03.140Z,22.93
2018-06-02T06:51:35.181Z,22.95
2018-06-02T06:52:07.206Z,22.95
2018-06-02T06:52:39.257Z,22.94
2018-06-02T06:53:11.275Z,22.93
2018-06-02T06:53:43.300Z,22.90
2018-06-02T06:54:15.330Z,22.89
2018-06-02T06:54:48.120Z,22.91